createdAt,value
2023-03-26T00:01:46.921Z,7.70
2023-03-26T00:04:19.791Z,7.67
2023-03-26T00:06:49.492Z,7.66
2023-03-26T00:09:18.129Z,7.67
2023-03-26T00:11:47.452Z,7.77
2023-03-26T00:14:18.214Z,7.77
2023-03-26T00:16:47.496Z,7.77
2023-03-26T00:19:17.325Z,7.83
2023-03-26T00:21:46.167Z,7.86
2023-03-26T00:24:16.282Z,7.94
2023-03-26T00:26:48.923Z,7.97
2023-03-26T00:29:16.955Z,8.01
2023-03-26T00:31:46.376Z,8.01
2023-03-26T00:34:16.209Z,8.05
2023-03-26T00:36:46.920Z,8.05
2023-03-26T00:39:18.150Z,8.05
2023-03-26T00:41:46.364Z,8.06
2023-03-26T00:44:14.629Z,8.12
2023-03-26T00:46:43.488Z,8.11
2023-03-26T00:49:14.883Z,8.15
2023-03-26T00:51:45.472Z,8.12
2023-03-26T00:54:13.228Z,8.14
2023-03-26T00:56:41.671Z,8.11
2023-03-26T00:59:10.758Z,8.16
2023-03-26T01:01:39.799Z,8.11
2023-03-26T01:04:28.526Z,7.99
2023-03-26T01:07:01.637Z,7.91
2023-03-26T01:09:35.178Z,7.88
2023-03-26T01:12:06.639Z,7.84
2023-03-26T01:14:35.584Z,7.83
2023-03-26T01:17:06.042Z,7.86
2023-03-26T01:19:41.821Z,7.77
2023-03-26T01:22:14.690Z,7.78
2023-03-26T01:24:47.614Z,7.77
2023-03-26T01:27:33.667Z,7.84
2023-03-26T01:30:12.017Z,7.88
2023-03-26T01:32:51.338Z,7.90
2023-03-26T01:35:30.675Z,7.90
2023-03-26T01:38:10.899Z,7.97
2023-03-26T01:40:47.427Z,8.01
2023-03-26T01:43:24.873Z,7.98
2023-03-26T01:45:55.215Z,7.94
2023-03-26T01:48:30.707Z,8.01
2023-03-26T01:50:59.611Z,8.05
2023-03-26T01:53:28.152Z,7.97
2023-03-26T01:56:07.635Z,8.04
2023-03-26T01:58:41.198Z,7.91
2023-03-26T02:01:25.455Z,8.01
2023-03-26T02:04:17.188Z,7.88
2023-03-26T02:06:53.098Z,7.91
2023-03-26T02:09:26.062Z,7.94
2023-03-26T02:11:57.238Z,7.86
2023-03-26T02:14:26.122Z,7.90
2023-03-26T02:16:54.041Z,7.90
2023-03-26T02:19:25.040Z,7.88
2023-03-26T02:21:53.070Z,7.88
2023-03-26T02:24:22.076Z,7.94
2023-03-26T02:26:58.574Z,7.86
2023-03-26T02:29:27.705Z,7.87
2023-03-26T02:31:55.739Z,7.83
2023-03-26T02:34:24.752Z,7.81
2023-03-26T02:36:54.729Z,7.90
2023-03-26T02:39:23.398Z,7.87
2023-03-26T02:42:07.254Z,7.86
2023-03-26T02:44:41.014Z,7.81
2023-03-26T02:47:30.916Z,7.86
2023-03-26T02:50:17.650Z,7.84
2023-03-26T02:53:05.858Z,7.81
2023-03-26T02:55:37.972Z,7.81
2023-03-26T02:58:08.341Z,7.94
2023-03-26T03:00:38.515Z,7.90
2023-03-26T03:03:28.953Z,7.93
2023-03-26T03:05:58.111Z,7.88
2023-03-26T03:08:39.296Z,7.83
2023-03-26T03:11:36.225Z,7.87
2023-03-26T03:14:08.781Z,7.98
2023-03-26T03:16:37.437Z,7.91
2023-03-26T03:19:11.173Z,7.97
2023-03-26T03:21:41.287Z,7.93
2023-03-26T03:24:14.300Z,7.94
2023-03-26T03:26:47.760Z,7.93
2023-03-26T03:29:38.403Z,7.94
2023-03-26T03:32:27.674Z,7.95
2023-03-26T03:35:01.711Z,7.93
2023-03-26T03:37:30.688Z,7.98
2023-03-26T03:39:59.536Z,7.95
2023-03-26T03:42:31.867Z,7.91
2023-03-26T03:45:04.654Z,7.98
2023-03-26T03:48:06.887Z,8.06
2023-03-26T03:50:40.808Z,7.95
2023-03-26T03:53:22.322Z,7.94
2023-03-26T03:55:54.061Z,7.95
2023-03-26T03:58:31.609Z,7.88
2023-03-26T04:01:11.167Z,7.95
2023-03-26T04:03:59.604Z,7.98
2023-03-26T04:06:40.214Z,8.01
2023-03-26T04:09:11.236Z,8.05
2023-03-26T04:11:40.529Z,7.98
2023-03-26T04:14:32.642Z,7.88
2023-03-26T04:17:05.417Z,7.97
2023-03-26T04:19:37.572Z,7.88
2023-03-26T04:22:09.460Z,7.97
2023-03-26T04:24:46.682Z,7.95
2023-03-26T04:27:36.841Z,7.94
2023-03-26T04:30:36.541Z,7.94
2023-03-26T04:33:17.797Z,7.87
2023-03-26T04:35:48.732Z,7.93
2023-03-26T04:38:18.717Z,7.90
2023-03-26T04:40:51.456Z,7.98
2023-03-26T04:43:42.397Z,7.95
2023-03-26T04:46:24.061Z,8.05
2023-03-26T04:49:03.396Z,8.08
2023-03-26T04:51:40.034Z,7.97
2023-03-26T04:54:21.639Z,7.98
2023-03-26T04:57:00.412Z,8.02
2023-03-26T04:59:34.765Z,8.02
2023-03-26T05:02:10.049Z,8.01
2023-03-26T05:04:57.171Z,8.08
2023-03-26T05:07:30.188Z,7.95
2023-03-26T05:10:03.365Z,7.94
2023-03-26T05:13:04.253Z,7.86
2023-03-26T05:15:36.312Z,7.87
2023-03-26T05:18:11.628Z,7.81
2023-03-26T05:20:47.017Z,7.84
2023-03-26T05:23:15.769Z,7.88
2023-03-26T05:25:47.349Z,7.94
2023-03-26T05:28:24.876Z,7.86
2023-03-26T05:30:59.299Z,7.91
2023-03-26T05:33:32.642Z,7.90
2023-03-26T05:36:09.338Z,7.90
2023-03-26T05:38:57.990Z,7.86
2023-03-26T05:41:49.143Z,7.84
2023-03-26T05:44:19.468Z,7.88
2023-03-26T05:46:47.512Z,7.84
2023-03-26T05:49:22.393Z,7.87
2023-03-26T05:51:53.735Z,7.88
2023-03-26T05:54:53.130Z,7.97
2023-03-26T05:57:40.236Z,7.87
2023-03-26T06:00:29.549Z,7.91
2023-03-26T06:02:58.891Z,7.99
2023-03-26T06:05:50.429Z,8.02
2023-03-26T06:08:23.801Z,8.02
2023-03-26T06:10:59.884Z,8.08
2023-03-26T06:13:29.408Z,8.16
2023-03-26T06:15:58.944Z,8.21
2023-03-26T06:18:36.437Z,8.22
2023-03-26T06:21:25.381Z,8.28
2023-03-26T06:24:00.347Z,8.14
2023-03-26T06:26:47.925Z,8.16
2023-03-26T06:29:34.097Z,8.22
2023-03-26T06:32:26.963Z,8.35
2023-03-26T06:35:01.410Z,8.42
2023-03-26T06:37:29.828Z,8.50
2023-03-26T06:40:03.851Z,8.57
2023-03-26T06:43:08.302Z,8.68
2023-03-26T06:45:59.037Z,8.74
2023-03-26T06:48:33.282Z,8.77
2023-03-26T06:51:22.656Z,9.04
2023-03-26T06:54:23.039Z,9.02
2023-03-26T06:57:00.318Z,9.02
2023-03-26T06:59:37.298Z,9.19
2023-03-26T07:02:25.734Z,9.07
2023-03-26T07:05:13.057Z,9.15
2023-03-26T07:08:00.627Z,9.16
2023-03-26T07:10:48.244Z,8.95
2023-03-26T07:13:21.982Z,9.12
2023-03-26T07:16:09.102Z,9.15
2023-03-26T07:18:55.755Z,9.15
2023-03-26T07:21:28.318Z,9.20
2023-03-26T07:23:57.769Z,9.20
2023-03-26T07:26:57.377Z,9.05
2023-03-26T07:29:39.152Z,9.46
2023-03-26T07:32:29.856Z,9.61
2023-03-26T07:35:24.720Z,9.63
2023-03-26T07:38:27.420Z,9.82
2023-03-26T07:41:16.015Z,10.15
2023-03-26T07:44:27.634Z,10.05
2023-03-26T07:47:26.368Z,10.17
2023-03-26T07:50:18.316Z,10.53
2023-03-26T07:53:07.140Z,10.36
2023-03-26T07:56:01.450Z,10.49
2023-03-26T07:59:20.797Z,10.34
2023-03-26T08:02:44.277Z,10.06
2023-03-26T08:05:33.906Z,10.06
2023-03-26T08:08:16.609Z,10.08
2023-03-26T08:11:13.927Z,10.22
2023-03-26T08:14:03.583Z,10.29
2023-03-26T08:16:38.172Z,10.25
2023-03-26T08:19:17.313Z,10.03
2023-03-26T08:21:51.633Z,10.46
2023-03-26T08:24:23.910Z,10.36
2023-03-26T08:27:00.597Z,10.26
2023-03-26T08:29:39.034Z,10.03
2023-03-26T08:32:14.327Z,10.09
2023-03-26T08:34:42.304Z,10.54
2023-03-26T08:37:11.663Z,10.41
2023-03-26T08:39:42.418Z,10.20
2023-03-26T08:42:38.177Z,10.54
2023-03-26T08:45:33.245Z,10.69
2023-03-26T08:48:47.084Z,11.31
2023-03-26T08:51:54.892Z,11.22
2023-03-26T08:54:49.481Z,11.29
2023-03-26T08:57:55.258Z,11.40
2023-03-26T09:00:59.620Z,11.47
2023-03-26T09:03:47.840Z,11.12
2023-03-26T09:06:34.127Z,11.38
2023-03-26T09:09:38.342Z,11.18
2023-03-26T09:12:56.993Z,11.58
2023-03-26T09:15:48.008Z,11.82
2023-03-26T09:18:40.577Z,11.58
2023-03-26T09:21:37.254Z,11.40
2023-03-26T09:24:28.385Z,11.18
2023-03-26T09:27:08.884Z,11.41
2023-03-26T09:30:15.588Z,11.50
2023-03-26T09:33:15.190Z,11.78
2023-03-26T09:36:19.274Z,11.29
2023-03-26T09:38:55.380Z,11.27
2023-03-26T09:41:39.337Z,11.23
2023-03-26T09:44:52.134Z,11.38
2023-03-26T09:47:51.670Z,11.57
2023-03-26T09:50:30.952Z,11.58
2023-03-26T09:53:10.282Z,11.99
2023-03-26T09:55:51.422Z,12.41
2023-03-26T09:58:42.541Z,11.91
2023-03-26T10:01:21.129Z,11.79
2023-03-26T10:04:01.781Z,11.60
2023-03-26T10:06:46.409Z,11.72
